sensor_id;sensor_type;location;lat;lon;timestamp;temperature;humidity
42141;DHT22;27809;51.864;5.646;2022-09-17T00:02:12;11.30;99.90
42141;DHT22;27809;51.864;5.646;2022-09-17T00:04:38;11.20;99.90
42141;DHT22;27809;51.864;5.646;2022-09-17T00:07:03;11.00;99.90
42141;DHT22;27809;51.864;5.646;2022-09-17T00:09:29;11.10;99.90
42141;DHT22;27809;51.864;5.646;2022-09-17T00:11:55;11.00;99.90
42141;DHT22;27809;51.864;5.646;2022-09-17T00:14:21;11.10;99.90
42141;DHT22;27809;51.864;5.646;2022-09-17T00:16:47;11.40;99.90
42141;DHT22;27809;51.864;5.646;2022-09-17T00:19:22;11.50;99.90
42141;DHT22;27809;51.864;5.646;2022-09-17T00:21:48;11.50;99.90
42141;DHT22;27809;51.864;5.646;2022-09-17T00:24:15;11.50;99.90
42141;DHT22;27809;51.864;5.646;2022-09-17T00:26:41;11.50;99.90
42141;DHT22;27809;51.864;5.646;2022-09-17T00:29:07;11.40;99.90
42141;DHT22;27809;51.864;5.646;2022-09-17T00:31:33;11.40;99.90
42141;DHT22;27809;51.864;5.646;2022-09-17T00:34:00;11.20;99.90
42141;DHT22;27809;51.864;5.646;2022-09-17T00:36:26;11.10;99.90
42141;DHT22;27809;51.864;5.646;2022-09-17T00:38:57;11.00;99.90
42141;DHT22;27809;51.864;5.646;2022-09-17T00:41:25;11.00;99.90
42141;DHT22;27809;51.864;5.646;2022-09-17T00:43:53;11.00;99.90
42141;DHT22;27809;51.864;5.646;2022-09-17T00:48:56;11.00;99.90
42141;DHT22;27809;51.864;5.646;2022-09-17T00:51:35;11.00;99.90
42141;DHT22;27809;51.864;5.646;2022-09-17T00:54:03;11.10;99.90
42141;DHT22;27809;51.864;5.646;2022-09-17T00:56:33;11.20;99.90
42141;DHT22;27809;51.864;5.646;2022-09-17T00:59:00;11.20;99.90
42141;DHT22;27809;51.864;5.646;2022-09-17T01:01:26;11.40;99.90
42141;DHT22;27809;51.864;5.646;2022-09-17T01:03:52;11.30;99.90
42141;DHT22;27809;51.864;5.646;2022-09-17T01:09:25;11.00;99.90
42141;DHT22;27809;51.864;5.646;2022-09-17T01:25:28;10.70;99.90
42141;DHT22;27809;51.864;5.646;2022-09-17T01:28:13;10.60;99.90
42141;DHT22;27809;51.864;5.646;2022-09-17T01:33:34;10.80;99.90
42141;DHT22;27809;51.864;5.646;2022-09-17T01:39:00;10.80;99.90
42141;DHT22;27809;51.864;5.646;2022-09-17T01:41:40;10.80;99.90
42141;DHT22;27809;51.864;5.646;2022-09-17T01:44:14;10.50;99.90
42141;DHT22;27809;51.864;5.646;2022-09-17T01:46:48;10.40;99.90
42141;DHT22;27809;51.864;5.646;2022-09-17T01:49:16;10.40;99.90
42141;DHT22;27809;51.864;5.646;2022-09-17T01:51:47;10.40;99.90
42141;DHT22;27809;51.864;5.646;2022-09-17T01:54:33;10.30;99.90
42141;DHT22;27809;51.864;5.646;2022-09-17T01:57:08;10.30;99.90
42141;DHT22;27809;51.864;5.646;2022-09-17T01:59:48;10.30;99.90
42141;DHT22;27809;51.864;5.646;2022-09-17T02:02:20;10.20;99.90
42141;DHT22;27809;51.864;5.646;2022-09-17T02:07:27;10.30;99.90
42141;DHT22;27809;51.864;5.646;2022-09-17T02:12:33;10.50;99.90
42141;DHT22;27809;51.864;5.646;2022-09-17T02:15:02;10.20;99.90
42141;DHT22;27809;51.864;5.646;2022-09-17T02:17:43;10.00;99.90
42141;DHT22;27809;51.864;5.646;2022-09-17T02:20:11;10.00;99.90
42141;DHT22;27809;51.864;5.646;2022-09-17T02:22:43;10.00;99.90
42141;DHT22;27809;51.864;5.646;2022-09-17T02:28:36;10.00;99.90
42141;DHT22;27809;51.864;5.646;2022-09-17T02:31:04;10.30;99.90
42141;DHT22;27809;51.864;5.646;2022-09-17T02:33:32;10.40;99.90
42141;DHT22;27809;51.864;5.646;2022-09-17T02:35:59;10.40;99.90
42141;DHT22;27809;51.864;5.646;2022-09-17T02:38:27;10.50;99.90
42141;DHT22;27809;51.864;5.646;2022-09-17T02:41:12;10.50;99.90
42141;DHT22;27809;51.864;5.646;2022-09-17T02:44:06;10.50;99.90
42141;DHT22;27809;51.864;5.646;2022-09-17T02:46:55;10.50;99.90
42141;DHT22;27809;51.864;5.646;2022-09-17T02:52:35;10.50;99.90
42141;DHT22;27809;51.864;5.646;2022-09-17T02:55:34;10.50;99.90
42141;DHT22;27809;51.864;5.646;2022-09-17T02:58:07;10.40;99.90
42141;DHT22;27809;51.864;5.646;2022-09-17T03:00:35;10.40;99.90
42141;DHT22;27809;51.864;5.646;2022-09-17T03:05:47;10.40;99.90
42141;DHT22;27809;51.864;5.646;2022-09-17T03:08:14;10.30;99.90
42141;DHT22;27809;51.864;5.646;2022-09-17T03:10:43;10.30;99.90
42141;DHT22;27809;51.864;5.646;2022-09-17T03:13:09;10.30;99.90
42141;DHT22;27809;51.864;5.646;2022-09-17T03:15:34;10.30;99.90
42141;DHT22;27809;51.864;5.646;2022-09-17T03:18:00;10.00;99.90
42141;DHT22;27809;51.864;5.646;2022-09-17T03:20:26;10.00;99.90
42141;DHT22;27809;51.864;5.646;2022-09-17T03:22:51;10.00;99.90
42141;DHT22;27809;51.864;5.646;2022-09-17T03:25:17;9.90;99.90
42141;DHT22;27809;51.864;5.646;2022-09-17T03:27:42;9.80;99.90
42141;DHT22;27809;51.864;5.646;2022-09-17T03:30:08;9.90;99.90
42141;DHT22;27809;51.864;5.646;2022-09-17T03:32:34;9.80;99.90
42141;DHT22;27809;51.864;5.646;2022-09-17T03:34:59;9.90;99.90
42141;DHT22;27809;51.864;5.646;2022-09-17T03:37:25;9.90;99.90
42141;DHT22;27809;51.864;5.646;2022-09-17T03:39:50;9.70;99.90
42141;DHT22;27809;51.864;5.646;2022-09-17T03:42:16;9.90;99.90
42141;DHT22;27809;51.864;5.646;2022-09-17T03:44:42;9.90;99.90
42141;DHT22;27809;51.864;5.646;2022-09-17T03:47:07;9.80;99.90
42141;DHT22;27809;51.864;5.646;2022-09-17T03:49:33;9.90;99.90
42141;DHT22;27809;51.864;5.646;2022-09-17T03:51:59;9.80;99.90
42141;DHT22;27809;51.864;5.646;2022-09-17T03:54:24;9.90;99.90
42141;DHT22;27809;51.864;5.646;2022-09-17T03:56:50;9.90;99.90
42141;DHT22;27809;51.864;5.646;2022-09-17T03:59:15;10.00;99.90
42141;DHT22;27809;51.864;5.646;2022-09-17T04:01:41;10.10;99.90
42141;DHT22;27809;51.864;5.646;2022-09-17T04:04:06;10.00;99.90
42141;DHT22;27809;51.864;5.646;2022-09-17T04:06:32;10.00;99.90
42141;DHT22;27809;51.864;5.646;2022-09-17T04:08:57;10.00;99.90
42141;DHT22;27809;51.864;5.646;2022-09-17T04:11:25;10.20;99.90
42141;DHT22;27809;51.864;5.646;2022-09-17T04:13:51;9.90;99.90
42141;DHT22;27809;51.864;5.646;2022-09-17T04:16:16;10.00;99.90
42141;DHT22;27809;51.864;5.646;2022-09-17T04:18:42;10.00;99.90
42141;DHT22;27809;51.864;5.646;2022-09-17T04:21:07;10.10;99.90
42141;DHT22;27809;51.864;5.646;2022-09-17T04:23:33;10.10;99.90
42141;DHT22;27809;51.864;5.646;2022-09-17T04:25:58;10.10;99.90
42141;DHT22;27809;51.864;5.646;2022-09-17T04:28:24;9.90;99.90
42141;DHT22;27809;51.864;5.646;2022-09-17T04:30:50;10.20;99.90
42141;DHT22;27809;51.864;5.646;2022-09-17T04:33:15;10.10;99.90
42141;DHT22;27809;51.864;5.646;2022-09-17T04:35:41;10.30;99.90
42141;DHT22;27809;51.864;5.646;2022-09-17T04:38:07;10.40;99.90
42141;DHT22;27809;51.864;5.646;2022-09-17T04:40:33;10.30;99.90
42141;DHT22;27809;51.864;5.646;2022-09-17T04:42:58;10.20;99.90
42141;DHT22;27809;51.864;5.646;2022-09-17T04:45:27;10.20;99.90
42141;DHT22;27809;51.864;5.646;2022-09-17T04:47:53;10.00;99.90
42141;DHT22;27809;51.864;5.646;2022-09-17T04:50:20;10.00;99.90
42141;DHT22;27809;51.864;5.646;2022-09-17T04:52:46;10.10;99.90
42141;DHT22;27809;51.864;5.646;2022-09-17T04:55:12;10.10;99.90
42141;DHT22;27809;51.864;5.646;2022-09-17T04:57:38;10.00;99.90
42141;DHT22;27809;51.864;5.646;2022-09-17T05:00:10;10.00;99.90
42141;DHT22;27809;51.864;5.646;2022-09-17T05:02:35;10.10;99.90
42141;DHT22;27809;51.864;5.646;2022-09-17T05:05:01;10.10;99.90
42141;DHT22;27809;51.864;5.646;2022-09-17T05:07:26;10.10;99.90
42141;DHT22;27809;51.864;5.646;2022-09-17T05:09:52;10.20;99.90
42141;DHT22;27809;51.864;5.646;2022-09-17T05:12:18;10.20;99.90
42141;DHT22;27809;51.864;5.646;2022-09-17T05:14:44;10.10;99.90
42141;DHT22;27809;51.864;5.646;2022-09-17T05:17:09;10.10;99.90
42141;DHT22;27809;51.864;5.646;2022-09-17T05:19:35;10.00;99.90
42141;DHT22;27809;51.864;5.646;2022-09-17T05:22:00;10.00;99.90
42141;DHT22;27809;51.864;5.646;2022-09-17T05:24:26;10.10;99.90
42141;DHT22;27809;51.864;5.646;2022-09-17T05:26:52;10.00;99.90
42141;DHT22;27809;51.864;5.646;2022-09-17T05:29:17;9.90;99.90
42141;DHT22;27809;51.864;5.646;2022-09-17T05:31:43;10.00;99.90
42141;DHT22;27809;51.864;5.646;2022-09-17T05:34:08;10.00;99.90
42141;DHT22;27809;51.864;5.646;2022-09-17T05:36:34;9.90;99.90
42141;DHT22;27809;51.864;5.646;2022-09-17T05:38:59;9.90;99.90
42141;DHT22;27809;51.864;5.646;2022-09-17T05:41:25;10.00;99.90
42141;DHT22;27809;51.864;5.646;2022-09-17T05:43:50;11.40;99.90
42141;DHT22;27809;51.864;5.646;2022-09-17T05:46:16;17.20;99.90
42141;DHT22;27809;51.864;5.646;2022-09-17T05:48:41;18.90;86.50
42141;DHT22;27809;51.864;5.646;2022-09-17T05:51:07;19.40;79.20
42141;DHT22;27809;51.864;5.646;2022-09-17T05:53:33;19.60;72.20
42141;DHT22;27809;51.864;5.646;2022-09-17T05:55:59;19.50;72.30
42141;DHT22;27809;51.864;5.646;2022-09-17T05:58:25;19.70;66.40
42141;DHT22;27809;51.864;5.646;2022-09-17T06:00:51;19.60;65.60
42141;DHT22;27809;51.864;5.646;2022-09-17T06:03:18;19.80;62.60
42141;DHT22;27809;51.864;5.646;2022-09-17T06:05:56;19.70;63.20
42141;DHT22;27809;51.864;5.646;2022-09-17T06:08:23;19.90;59.30
42141;DHT22;27809;51.864;5.646;2022-09-17T06:10:49;19.80;58.10
42141;DHT22;27809;51.864;5.646;2022-09-17T06:13:16;19.60;58.70
42141;DHT22;27809;51.864;5.646;2022-09-17T06:15:42;19.70;58.60
42141;DHT22;27809;51.864;5.646;2022-09-17T06:18:07;19.70;57.80
42141;DHT22;27809;51.864;5.646;2022-09-17T06:20:33;19.60;58.40
42141;DHT22;27809;51.864;5.646;2022-09-17T06:22:58;19.70;59.10
42141;DHT22;27809;51.864;5.646;2022-09-17T06:25:24;19.80;58.60
42141;DHT22;27809;51.864;5.646;2022-09-17T06:27:50;19.80;58.90
42141;DHT22;27809;51.864;5.646;2022-09-17T06:30:16;19.80;59.60
42141;DHT22;27809;51.864;5.646;2022-09-17T06:32:42;19.70;58.00
42141;DHT22;27809;51.864;5.646;2022-09-17T06:35:08;19.70;57.10
42141;DHT22;27809;51.864;5.646;2022-09-17T06:37:33;19.50;59.20
42141;DHT22;27809;51.864;5.646;2022-09-17T06:40:00;19.70;57.10
42141;DHT22;27809;51.864;5.646;2022-09-17T06:42:27;19.60;57.70
42141;DHT22;27809;51.864;5.646;2022-09-17T06:44:53;19.70;56.20
42141;DHT22;27809;51.864;5.646;2022-09-17T06:47:18;19.90;62.30
42141;DHT22;27809;51.864;5.646;2022-09-17T06:49:45;20.00;61.90
42141;DHT22;27809;51.864;5.646;2022-09-17T06:52:10;19.50;60.80
42141;DHT22;27809;51.864;5.646;2022-09-17T06:54:36;19.80;56.00
42141;DHT22;27809;51.864;5.646;2022-09-17T06:57:01;19.70;56.40
42141;DHT22;27809;51.864;5.646;2022-09-17T06:59:27;19.70;60.70
42141;DHT22;27809;51.864;5.646;2022-09-17T07:01:53;19.90;58.30
42141;DHT22;27809;51.864;5.646;2022-09-17T07:04:18;19.60;56.90
42141;DHT22;27809;51.864;5.646;2022-09-17T07:06:44;19.40;56.30
42141;DHT22;27809;51.864;5.646;2022-09-17T07:09:10;19.80;57.90
42141;DHT22;27809;51.864;5.646;2022-09-17T07:11:37;19.90;55.10
42141;DHT22;27809;51.864;5.646;2022-09-17T07:14:03;19.90;54.20
42141;DHT22;27809;51.864;5.646;2022-09-17T07:16:29;19.60;54.30
42141;DHT22;27809;51.864;5.646;2022-09-17T07:19:00;19.60;54.20
42141;DHT22;27809;51.864;5.646;2022-09-17T07:21:26;19.80;54.10
42141;DHT22;27809;51.864;5.646;2022-09-17T07:23:51;20.00;52.00
42141;DHT22;27809;51.864;5.646;2022-09-17T07:26:17;20.00;52.70
42141;DHT22;27809;51.864;5.646;2022-09-17T07:28:43;20.10;51.30
42141;DHT22;27809;51.864;5.646;2022-09-17T07:31:09;19.80;52.10
42141;DHT22;27809;51.864;5.646;2022-09-17T07:33:36;19.90;51.10
42141;DHT22;27809;51.864;5.646;2022-09-17T07:36:07;19.60;52.00
42141;DHT22;27809;51.864;5.646;2022-09-17T07:38:33;19.90;50.20
42141;DHT22;27809;51.864;5.646;2022-09-17T07:41:13;20.10;51.10
42141;DHT22;27809;51.864;5.646;2022-09-17T07:43:40;19.80;51.90
42141;DHT22;27809;51.864;5.646;2022-09-17T07:46:07;19.80;53.80
42141;DHT22;27809;51.864;5.646;2022-09-17T07:48:34;20.20;51.50
42141;DHT22;27809;51.864;5.646;2022-09-17T07:50:59;20.20;51.40
42141;DHT22;27809;51.864;5.646;2022-09-17T07:53:25;20.20;52.10
42141;DHT22;27809;51.864;5.646;2022-09-17T07:55:56;20.40;49.20
42141;DHT22;27809;51.864;5.646;2022-09-17T07:58:27;20.30;48.30
42141;DHT22;27809;51.864;5.646;2022-09-17T08:00:53;20.40;49.20
42141;DHT22;27809;51.864;5.646;2022-09-17T08:03:24;20.30;49.30
42141;DHT22;27809;51.864;5.646;2022-09-17T08:05:49;20.30;49.00
42141;DHT22;27809;51.864;5.646;2022-09-17T08:08:15;20.50;48.00
42141;DHT22;27809;51.864;5.646;2022-09-17T08:10:40;20.50;47.90
42141;DHT22;27809;51.864;5.646;2022-09-17T08:13:06;19.90;50.60
42141;DHT22;27809;51.864;5.646;2022-09-17T08:15:31;20.40;48.40
42141;DHT22;27809;51.864;5.646;2022-09-17T08:17:57;20.60;47.00
42141;DHT22;27809;51.864;5.646;2022-09-17T08:20:22;20.60;49.00
42141;DHT22;27809;51.864;5.646;2022-09-17T08:22:57;20.70;48.20
42141;DHT22;27809;51.864;5.646;2022-09-17T08:25:22;20.60;49.80
42141;DHT22;27809;51.864;5.646;2022-09-17T08:27:52;20.40;48.80
42141;DHT22;27809;51.864;5.646;2022-09-17T08:30:18;20.40;48.70
42141;DHT22;27809;51.864;5.646;2022-09-17T08:32:43;20.60;49.60
42141;DHT22;27809;51.864;5.646;2022-09-17T08:35:09;20.60;49.50
42141;DHT22;27809;51.864;5.646;2022-09-17T08:37:36;20.60;50.20
42141;DHT22;27809;51.864;5.646;2022-09-17T08:40:02;20.70;50.10
42141;DHT22;27809;51.864;5.646;2022-09-17T08:42:36;20.50;48.50
42141;DHT22;27809;51.864;5.646;2022-09-17T08:45:09;20.80;48.90
42141;DHT22;27809;51.864;5.646;2022-09-17T08:47:40;21.10;48.00
42141;DHT22;27809;51.864;5.646;2022-09-17T08:53:00;21.30;46.60
42141;DHT22;27809;51.864;5.646;2022-09-17T08:59:12;20.60;48.60
42141;DHT22;27809;51.864;5.646;2022-09-17T09:01:26;21.00;47.60
42141;DHT22;27809;51.864;5.646;2022-09-17T09:04:24;21.20;44.90
42141;DHT22;27809;51.864;5.646;2022-09-17T09:07:11;22.00;44.80
42141;DHT22;27809;51.864;5.646;2022-09-17T09:09:47;21.60;44.50
42141;DHT22;27809;51.864;5.646;2022-09-17T09:12:22;22.00;43.40
42141;DHT22;27809;51.864;5.646;2022-09-17T09:14:55;22.20;42.60
42141;DHT22;27809;51.864;5.646;2022-09-17T09:17:26;22.00;42.30
42141;DHT22;27809;51.864;5.646;2022-09-17T09:19:53;21.60;44.30
42141;DHT22;27809;51.864;5.646;2022-09-17T09:22:36;22.00;44.90
42141;DHT22;27809;51.864;5.646;2022-09-17T09:27:55;21.30;45.60
42141;DHT22;27809;51.864;5.646;2022-09-17T09:30:25;21.30;46.20
42141;DHT22;27809;51.864;5.646;2022-09-17T09:35:31;20.60;47.80
42141;DHT22;27809;51.864;5.646;2022-09-17T09:38:10;20.80;47.70
42141;DHT22;27809;51.864;5.646;2022-09-17T09:40:59;21.00;46.10
42141;DHT22;27809;51.864;5.646;2022-09-17T09:43:56;20.90;46.50
42141;DHT22;27809;51.864;5.646;2022-09-17T09:49:39;21.30;45.80
42141;DHT22;27809;51.864;5.646;2022-09-17T09:55:41;20.40;46.80
42141;DHT22;27809;51.864;5.646;2022-09-17T09:58:33;20.90;46.40
42141;DHT22;27809;51.864;5.646;2022-09-17T10:00:59;20.20;50.30
42141;DHT22;27809;51.864;5.646;2022-09-17T10:03:30;20.20;48.80
42141;DHT22;27809;51.864;5.646;2022-09-17T10:06:06;20.70;48.00
42141;DHT22;27809;51.864;5.646;2022-09-17T10:09:20;20.60;47.90
42141;DHT22;27809;51.864;5.646;2022-09-17T10:11:28;20.90;47.30
42141;DHT22;27809;51.864;5.646;2022-09-17T10:14:25;21.00;47.00
42141;DHT22;27809;51.864;5.646;2022-09-17T10:19:39;20.70;47.50
42141;DHT22;27809;51.864;5.646;2022-09-17T10:24:51;20.40;48.50
42141;DHT22;27809;51.864;5.646;2022-09-17T10:27:18;20.50;47.60
42141;DHT22;27809;51.864;5.646;2022-09-17T10:29:47;20.40;47.80
42141;DHT22;27809;51.864;5.646;2022-09-17T10:32:20;20.70;47.50
42141;DHT22;27809;51.864;5.646;2022-09-17T10:35:23;21.20;49.00
42141;DHT22;27809;51.864;5.646;2022-09-17T10:37:51;21.10;46.70
42141;DHT22;27809;51.864;5.646;2022-09-17T10:42:50;20.50;50.00
42141;DHT22;27809;51.864;5.646;2022-09-17T10:45:29;20.80;48.30
42141;DHT22;27809;51.864;5.646;2022-09-17T10:47:56;19.80;53.60
42141;DHT22;27809;51.864;5.646;2022-09-17T10:50:30;20.50;50.30
42141;DHT22;27809;51.864;5.646;2022-09-17T10:53:01;20.90;49.10
42141;DHT22;27809;51.864;5.646;2022-09-17T11:00:59;21.10;53.20
42141;DHT22;27809;51.864;5.646;2022-09-17T11:03:50;20.80;54.70
42141;DHT22;27809;51.864;5.646;2022-09-17T11:20:04;21.10;50.30
42141;DHT22;27809;51.864;5.646;2022-09-17T11:25:46;20.40;49.10
42141;DHT22;27809;51.864;5.646;2022-09-17T11:28:28;19.50;51.90
42141;DHT22;27809;51.864;5.646;2022-09-17T11:31:36;18.20;49.70
42141;DHT22;27809;51.864;5.646;2022-09-17T11:34:22;16.40;61.40
42141;DHT22;27809;51.864;5.646;2022-09-17T11:39:52;15.70;67.60
42141;DHT22;27809;51.864;5.646;2022-09-17T11:42:59;16.10;64.60
42141;DHT22;27809;51.864;5.646;2022-09-17T11:45:30;17.60;72.80
42141;DHT22;27809;51.864;5.646;2022-09-17T11:48:04;20.00;53.90
42141;DHT22;27809;51.864;5.646;2022-09-17T11:50:39;21.00;51.70
42141;DHT22;27809;51.864;5.646;2022-09-17T11:53:25;20.50;47.90
42141;DHT22;27809;51.864;5.646;2022-09-17T11:55:58;19.30;42.80
42141;DHT22;27809;51.864;5.646;2022-09-17T11:58:45;17.70;47.60
42141;DHT22;27809;51.864;5.646;2022-09-17T12:01:30;16.70;49.20
42141;DHT22;27809;51.864;5.646;2022-09-17T12:06:37;20.20;48.50
42141;DHT22;27809;51.864;5.646;2022-09-17T12:09:14;20.80;46.70
42141;DHT22;27809;51.864;5.646;2022-09-17T12:12:32;19.30;50.90
42141;DHT22;27809;51.864;5.646;2022-09-17T12:14:42;20.30;49.00
42141;DHT22;27809;51.864;5.646;2022-09-17T12:17:11;20.80;44.90
42141;DHT22;27809;51.864;5.646;2022-09-17T12:19:41;20.00;47.90
42141;DHT22;27809;51.864;5.646;2022-09-17T12:22:12;20.70;46.00
42141;DHT22;27809;51.864;5.646;2022-09-17T12:24:40;21.00;45.60
42141;DHT22;27809;51.864;5.646;2022-09-17T12:30:10;21.10;45.80
42141;DHT22;27809;51.864;5.646;2022-09-17T12:35:09;20.90;46.20
42141;DHT22;27809;51.864;5.646;2022-09-17T12:37:42;20.90;46.70
42141;DHT22;27809;51.864;5.646;2022-09-17T12:43:27;20.80;47.30
42141;DHT22;27809;51.864;5.646;2022-09-17T12:46:05;20.80;46.70
42141;DHT22;27809;51.864;5.646;2022-09-17T12:49:05;20.10;46.20
42141;DHT22;27809;51.864;5.646;2022-09-17T12:54:38;18.50;48.30
42141;DHT22;27809;51.864;5.646;2022-09-17T12:57:28;19.10;51.20
42141;DHT22;27809;51.864;5.646;2022-09-17T13:00:02;18.70;48.80
42141;DHT22;27809;51.864;5.646;2022-09-17T13:10:39;20.70;46.70
42141;DHT22;27809;51.864;5.646;2022-09-17T13:18:35;15.50;65.50
42141;DHT22;27809;51.864;5.646;2022-09-17T13:21:19;14.70;66.20
42141;DHT22;27809;51.864;5.646;2022-09-17T13:23:49;14.30;70.40
42141;DHT22;27809;51.864;5.646;2022-09-17T13:26:21;14.50;73.00
42141;DHT22;27809;51.864;5.646;2022-09-17T13:28:56;14.20;75.70
42141;DHT22;27809;51.864;5.646;2022-09-17T13:36:52;14.60;79.10
42141;DHT22;27809;51.864;5.646;2022-09-17T13:39:44;15.40;80.50
42141;DHT22;27809;51.864;5.646;2022-09-17T13:42:18;15.50;77.50
42141;DHT22;27809;51.864;5.646;2022-09-17T13:45:01;14.50;74.90
42141;DHT22;27809;51.864;5.646;2022-09-17T13:47:33;13.70;83.30
42141;DHT22;27809;51.864;5.646;2022-09-17T13:50:09;13.50;84.20
42141;DHT22;27809;51.864;5.646;2022-09-17T13:53:18;13.30;84.30
42141;DHT22;27809;51.864;5.646;2022-09-17T13:55:34;13.50;86.70
42141;DHT22;27809;51.864;5.646;2022-09-17T13:58:07;14.20;86.30
42141;DHT22;27809;51.864;5.646;2022-09-17T14:01:00;14.70;83.40
42141;DHT22;27809;51.864;5.646;2022-09-17T14:05:56;15.40;76.30
42141;DHT22;27809;51.864;5.646;2022-09-17T14:22:11;15.20;66.90
42141;DHT22;27809;51.864;5.646;2022-09-17T14:27:49;15.00;71.50
42141;DHT22;27809;51.864;5.646;2022-09-17T14:35:38;14.60;74.60
42141;DHT22;27809;51.864;5.646;2022-09-17T14:41:03;14.30;73.60
42141;DHT22;27809;51.864;5.646;2022-09-17T14:48:44;18.60;52.40
42141;DHT22;27809;51.864;5.646;2022-09-17T14:56:15;15.60;63.20
42141;DHT22;27809;51.864;5.646;2022-09-17T14:58:46;15.00;65.10
42141;DHT22;27809;51.864;5.646;2022-09-17T15:03:46;20.00;51.50
42141;DHT22;27809;51.864;5.646;2022-09-17T15:06:22;20.70;52.40
42141;DHT22;27809;51.864;5.646;2022-09-17T15:08:48;20.60;44.40
42141;DHT22;27809;51.864;5.646;2022-09-17T15:11:14;20.90;53.60
42141;DHT22;27809;51.864;5.646;2022-09-17T15:13:51;21.50;49.00
42141;DHT22;27809;51.864;5.646;2022-09-17T15:18:47;21.20;46.70
42141;DHT22;27809;51.864;5.646;2022-09-17T15:21:19;20.90;44.00
42141;DHT22;27809;51.864;5.646;2022-09-17T15:23:48;18.10;45.70
42141;DHT22;27809;51.864;5.646;2022-09-17T15:26:19;16.20;52.10
42141;DHT22;27809;51.864;5.646;2022-09-17T15:28:46;15.70;55.80
42141;DHT22;27809;51.864;5.646;2022-09-17T15:31:16;15.60;57.00
42141;DHT22;27809;51.864;5.646;2022-09-17T15:33:43;15.50;55.90
42141;DHT22;27809;51.864;5.646;2022-09-17T15:36:23;15.30;54.60
42141;DHT22;27809;51.864;5.646;2022-09-17T15:38:50;15.20;57.30
42141;DHT22;27809;51.864;5.646;2022-09-17T15:41:27;15.30;58.90
42141;DHT22;27809;51.864;5.646;2022-09-17T15:43:53;15.20;56.60
42141;DHT22;27809;51.864;5.646;2022-09-17T15:46:30;15.30;55.10
42141;DHT22;27809;51.864;5.646;2022-09-17T15:49:00;15.30;54.00
42141;DHT22;27809;51.864;5.646;2022-09-17T15:51:32;18.40;44.10
42141;DHT22;27809;51.864;5.646;2022-09-17T15:54:00;15.80;56.20
42141;DHT22;27809;51.864;5.646;2022-09-17T15:56:31;15.40;51.50
42141;DHT22;27809;51.864;5.646;2022-09-17T15:59:03;15.30;53.00
42141;DHT22;27809;51.864;5.646;2022-09-17T16:08:59;15.20;50.90
42141;DHT22;27809;51.864;5.646;2022-09-17T16:11:31;15.10;53.20
42141;DHT22;27809;51.864;5.646;2022-09-17T16:13:58;15.10;53.90
42141;DHT22;27809;51.864;5.646;2022-09-17T16:16:35;15.00;56.60
42141;DHT22;27809;51.864;5.646;2022-09-17T16:19:02;17.60;61.90
42141;DHT22;27809;51.864;5.646;2022-09-17T16:21:27;16.60;51.70
42141;DHT22;27809;51.864;5.646;2022-09-17T16:23:53;15.50;55.20
42141;DHT22;27809;51.864;5.646;2022-09-17T16:26:21;14.90;60.60
42141;DHT22;27809;51.864;5.646;2022-09-17T16:28:49;15.70;62.10
42141;DHT22;27809;51.864;5.646;2022-09-17T16:31:18;14.80;68.90
42141;DHT22;27809;51.864;5.646;2022-09-17T16:33:44;14.50;69.80
42141;DHT22;27809;51.864;5.646;2022-09-17T16:36:09;14.30;71.90
42141;DHT22;27809;51.864;5.646;2022-09-17T16:38:35;14.20;70.60
42141;DHT22;27809;51.864;5.646;2022-09-17T16:41:04;14.10;68.90
42141;DHT22;27809;51.864;5.646;2022-09-17T16:43:30;14.10;68.40
42141;DHT22;27809;51.864;5.646;2022-09-17T16:46:04;14.00;70.30
42141;DHT22;27809;51.864;5.646;2022-09-17T16:48:30;14.00;70.10
42141;DHT22;27809;51.864;5.646;2022-09-17T16:50:56;14.00;69.30
42141;DHT22;27809;51.864;5.646;2022-09-17T16:53:22;14.00;69.50
42141;DHT22;27809;51.864;5.646;2022-09-17T16:55:47;16.30;69.40
42141;DHT22;27809;51.864;5.646;2022-09-17T16:58:13;18.20;65.80
42141;DHT22;27809;51.864;5.646;2022-09-17T17:00:41;15.90;55.10
42141;DHT22;27809;51.864;5.646;2022-09-17T17:03:08;14.80;61.80
42141;DHT22;27809;51.864;5.646;2022-09-17T17:05:35;14.40;66.70
42141;DHT22;27809;51.864;5.646;2022-09-17T17:08:01;14.20;68.60
42141;DHT22;27809;51.864;5.646;2022-09-17T17:10:26;14.20;70.50
42141;DHT22;27809;51.864;5.646;2022-09-17T17:12:52;14.20;72.90
42141;DHT22;27809;51.864;5.646;2022-09-17T17:15:17;14.30;65.00
42141;DHT22;27809;51.864;5.646;2022-09-17T17:17:44;14.20;62.50
42141;DHT22;27809;51.864;5.646;2022-09-17T17:20:09;14.20;59.80
42141;DHT22;27809;51.864;5.646;2022-09-17T17:22:41;14.10;61.70
42141;DHT22;27809;51.864;5.646;2022-09-17T17:25:08;13.90;66.40
42141;DHT22;27809;51.864;5.646;2022-09-17T17:27:34;13.60;72.60
42141;DHT22;27809;51.864;5.646;2022-09-17T17:30:00;13.40;76.00
42141;DHT22;27809;51.864;5.646;2022-09-17T17:32:31;13.30;79.00
42141;DHT22;27809;51.864;5.646;2022-09-17T17:34:57;13.20;81.50
42141;DHT22;27809;51.864;5.646;2022-09-17T17:37:22;13.00;84.30
42141;DHT22;27809;51.864;5.646;2022-09-17T17:39:48;12.80;82.10
42141;DHT22;27809;51.864;5.646;2022-09-17T17:42:14;12.80;85.60
42141;DHT22;27809;51.864;5.646;2022-09-17T17:44:39;12.60;85.10
42141;DHT22;27809;51.864;5.646;2022-09-17T17:47:05;12.60;85.30
42141;DHT22;27809;51.864;5.646;2022-09-17T17:49:31;12.60;85.80
42141;DHT22;27809;51.864;5.646;2022-09-17T17:51:57;12.60;86.90
42141;DHT22;27809;51.864;5.646;2022-09-17T17:54:23;12.50;88.30
42141;DHT22;27809;51.864;5.646;2022-09-17T17:56:48;12.60;89.50
42141;DHT22;27809;51.864;5.646;2022-09-17T17:59:14;12.60;90.30
42141;DHT22;27809;51.864;5.646;2022-09-17T18:01:40;12.50;91.50
42141;DHT22;27809;51.864;5.646;2022-09-17T18:04:05;12.50;91.70
42141;DHT22;27809;51.864;5.646;2022-09-17T18:06:33;12.40;92.50
42141;DHT22;27809;51.864;5.646;2022-09-17T18:08:59;12.40;93.20
42141;DHT22;27809;51.864;5.646;2022-09-17T18:11:24;12.40;94.20
42141;DHT22;27809;51.864;5.646;2022-09-17T18:13:52;12.40;94.80
42141;DHT22;27809;51.864;5.646;2022-09-17T18:16:18;12.30;95.10
42141;DHT22;27809;51.864;5.646;2022-09-17T18:18:45;12.20;96.00
42141;DHT22;27809;51.864;5.646;2022-09-17T18:21:13;12.20;97.10
42141;DHT22;27809;51.864;5.646;2022-09-17T18:23:40;12.30;97.00
42141;DHT22;27809;51.864;5.646;2022-09-17T18:26:11;12.30;97.60
42141;DHT22;27809;51.864;5.646;2022-09-17T18:28:37;12.20;98.10
42141;DHT22;27809;51.864;5.646;2022-09-17T18:31:08;12.20;98.60
42141;DHT22;27809;51.864;5.646;2022-09-17T18:33:34;12.20;99.30
42141;DHT22;27809;51.864;5.646;2022-09-17T18:36:02;12.20;99.90
42141;DHT22;27809;51.864;5.646;2022-09-17T18:38:28;12.10;99.90
42141;DHT22;27809;51.864;5.646;2022-09-17T18:40:54;12.20;99.90
42141;DHT22;27809;51.864;5.646;2022-09-17T18:43:20;12.00;99.90
42141;DHT22;27809;51.864;5.646;2022-09-17T18:45:52;12.10;99.90